createdAt,value
2018-02-12T00:01:10.888Z,9.90
2018-02-12T00:03:38.367Z,9.53
2018-02-12T00:06:05.857Z,10.90
2018-02-12T00:08:33.328Z,10.67
2018-02-12T00:11:01.609Z,10.90
2018-02-12T00:13:29.077Z,12.07
2018-02-12T00:15:57.711Z,12.43
2018-02-12T00:18:25.208Z,11.90
2018-02-12T00:20:52.692Z,11.87
2018-02-12T00:23:20.172Z,10.73
2018-02-12T00:25:47.662Z,10.77
2018-02-12T00:28:15.137Z,11.23
2018-02-12T00:30:42.629Z,11.17
2018-02-12T00:33:10.968Z,8.77
2018-02-12T00:35:38.443Z,11.10
2018-02-12T00:38:05.910Z,10.90
2018-02-12T00:40:33.385Z,14.63
2018-02-12T00:43:02.495Z,11.50
2018-02-12T00:45:29.995Z,11.23
2018-02-12T00:47:57.471Z,10.70
2018-02-12T00:50:24.935Z,11.10
2018-02-12T00:52:52.424Z,10.30
2018-02-12T00:55:19.961Z,9.10
2018-02-12T00:57:48.201Z,11.73
2018-02-12T01:00:15.677Z,11.20
2018-02-12T01:02:43.146Z,11.30
2018-02-12T01:05:10.644Z,12.73
2018-02-12T01:07:38.113Z,11.70
2018-02-12T01:10:05.591Z,13.27
2018-02-12T01:12:33.062Z,11.13
2018-02-12T01:15:00.542Z,11.50
2018-02-12T01:17:28.049Z,12.03
2018-02-12T01:19:55.486Z,12.17
2018-02-12T01:22:22.938Z,12.87
2018-02-12T01:24:50.445Z,12.33
2018-02-12T01:27:17.897Z,12.77
2018-02-12T01:29:46.093Z,13.10
2018-02-12T01:32:13.551Z,12.37
2018-02-12T01:34:41.001Z,13.27
2018-02-12T01:37:08.470Z,13.83
2018-02-12T01:39:35.985Z,14.03
2018-02-12T01:42:03.452Z,14.20
2018-02-12T01:44:30.921Z,13.33
2018-02-12T01:46:58.388Z,12.60
2018-02-12T01:49:25.866Z,13.97
2018-02-12T01:51:53.320Z,13.10
2018-02-12T01:54:20.793Z,14.83
2018-02-12T01:56:48.376Z,13.17
2018-02-12T01:59:15.825Z,15.20
2018-02-12T02:01:43.310Z,14.70
2018-02-12T02:04:10.756Z,14.13
2018-02-12T02:06:38.203Z,14.23
2018-02-12T02:09:05.702Z,15.20
2018-02-12T02:11:33.156Z,15.07
2018-02-12T02:14:01.398Z,15.17
2018-02-12T02:16:28.852Z,13.87
2018-02-12T02:18:56.359Z,14.43
2018-02-12T02:21:24.563Z,14.80
2018-02-12T02:23:53.048Z,14.40
2018-02-12T02:26:20.496Z,12.23
2018-02-12T02:28:47.953Z,13.80
2018-02-12T02:31:15.443Z,13.50
2018-02-12T02:33:42.906Z,13.60
2018-02-12T02:36:10.382Z,13.03
2018-02-12T02:38:38.602Z,12.87
2018-02-12T02:41:06.064Z,13.50
2018-02-12T02:43:33.508Z,13.03
2018-02-12T02:46:01.003Z,13.73
2018-02-12T02:48:28.480Z,13.93
2018-02-12T02:50:55.931Z,13.87
2018-02-12T02:53:24.188Z,12.53
2018-02-12T02:55:51.672Z,13.67
2018-02-12T02:58:19.893Z,10.93
2018-02-12T03:00:47.382Z,11.87
2018-02-12T03:03:14.850Z,10.23
2018-02-12T03:05:42.312Z,11.43
2018-02-12T03:08:10.578Z,10.00
2018-02-12T03:10:38.040Z,9.83
2018-02-12T03:13:05.497Z,9.40
2018-02-12T03:15:32.973Z,9.37
2018-02-12T03:18:01.260Z,10.30
2018-02-12T03:20:28.716Z,9.10
2018-02-12T03:22:56.199Z,9.30
2018-02-12T03:25:23.680Z,9.80
2018-02-12T03:27:51.160Z,10.13
2018-02-12T03:30:18.648Z,9.87
2018-02-12T03:32:46.868Z,9.73
2018-02-12T03:35:14.345Z,10.20
2018-02-12T03:37:42.642Z,8.50
2018-02-12T03:40:10.092Z,9.70
2018-02-12T03:42:37.637Z,9.40
2018-02-12T03:45:05.122Z,9.27
2018-02-12T03:47:32.583Z,9.30
2018-02-12T03:50:00.091Z,12.03
2018-02-12T03:52:27.565Z,9.87
2018-02-12T03:54:55.024Z,9.20
2018-02-12T03:57:23.265Z,8.87
2018-02-12T03:59:50.734Z,9.33
2018-02-12T04:02:18.223Z,9.30
2018-02-12T04:04:45.722Z,7.63
2018-02-12T04:07:13.190Z,8.27
2018-02-12T04:09:40.665Z,9.70
2018-02-12T04:12:08.157Z,8.43
2018-02-12T04:14:36.439Z,9.03
2018-02-12T04:17:03.929Z,9.47
2018-02-12T04:19:31.940Z,8.97
2018-02-12T04:21:59.404Z,11.20
2018-02-12T04:24:27.655Z,9.10
2018-02-12T04:26:55.706Z,12.40
2018-02-12T04:29:23.208Z,10.50
2018-02-12T04:31:51.429Z,8.30
2018-02-12T04:34:18.897Z,11.37
2018-02-12T04:36:46.387Z,10.53
2018-02-12T04:39:13.849Z,9.23
2018-02-12T04:41:41.322Z,8.43
2018-02-12T04:44:09.585Z,9.37
2018-02-12T04:46:37.833Z,8.40
2018-02-12T04:49:05.316Z,7.43
2018-02-12T04:51:33.692Z,9.00
2018-02-12T04:54:01.148Z,8.63
2018-02-12T04:56:28.664Z,8.40
2018-02-12T04:58:56.136Z,9.70
2018-02-12T05:01:23.589Z,8.70
2018-02-12T05:03:51.073Z,9.53
2018-02-12T05:06:18.543Z,8.57
2018-02-12T05:08:46.779Z,9.80
2018-02-12T05:11:14.296Z,9.47
2018-02-12T05:13:41.846Z,12.00
2018-02-12T05:16:09.305Z,10.77
2018-02-12T05:18:36.773Z,10.93
2018-02-12T05:21:04.243Z,9.50
2018-02-12T05:23:31.746Z,11.67
2018-02-12T05:25:59.212Z,11.50
2018-02-12T05:28:26.660Z,10.43
2018-02-12T05:30:54.129Z,12.07
2018-02-12T05:33:24.519Z,11.77
2018-02-12T05:35:51.980Z,10.90
2018-02-12T05:38:19.440Z,10.63
2018-02-12T05:40:46.912Z,12.80
2018-02-12T05:43:14.373Z,9.90
2018-02-12T05:45:41.848Z,11.33
2018-02-12T05:48:10.093Z,10.70
2018-02-12T05:50:37.561Z,11.77
2018-02-12T05:53:05.015Z,9.93
2018-02-12T05:55:33.316Z,10.40
2018-02-12T05:58:01.534Z,11.37
2018-02-12T06:00:29.944Z,10.70
2018-02-12T06:02:57.406Z,8.70
2018-02-12T06:05:25.633Z,9.97
2018-02-12T06:07:53.090Z,8.97
2018-02-12T06:10:20.558Z,8.57
2018-02-12T06:12:48.056Z,9.70
2018-02-12T06:15:16.272Z,12.10
2018-02-12T06:17:44.601Z,9.50
2018-02-12T06:20:12.859Z,9.37
2018-02-12T06:22:40.351Z,10.03
2018-02-12T06:25:09.456Z,9.10
2018-02-12T06:27:36.912Z,10.33
2018-02-12T06:30:04.448Z,9.20
2018-02-12T06:32:31.908Z,9.83
2018-02-12T06:35:00.170Z,9.93
2018-02-12T06:37:27.652Z,9.80
2018-02-12T06:39:55.200Z,9.20
2018-02-12T06:42:22.672Z,8.30
2018-02-12T06:44:50.156Z,9.10
2018-02-12T06:47:17.667Z,8.10
2018-02-12T06:49:45.141Z,9.30
2018-02-12T06:52:13.386Z,7.50
2018-02-12T06:54:40.873Z,7.80
2018-02-12T06:57:08.350Z,8.63
2018-02-12T06:59:35.836Z,10.37
2018-02-12T07:02:03.320Z,8.27
2018-02-12T07:04:30.778Z,8.00
2018-02-12T07:06:58.264Z,9.43
2018-02-12T07:09:25.749Z,9.47
2018-02-12T07:11:53.260Z,10.20
2018-02-12T07:14:21.510Z,8.53
2018-02-12T07:16:48.997Z,9.57
2018-02-12T07:19:17.225Z,9.47
2018-02-12T07:21:44.721Z,8.47
2018-02-12T07:24:12.971Z,9.73
2018-02-12T07:26:40.482Z,10.40
2018-02-12T07:29:07.961Z,9.33
2018-02-12T07:31:35.453Z,9.70
2018-02-12T07:34:02.947Z,9.23
2018-02-12T07:36:30.424Z,8.40
2018-02-12T07:38:57.998Z,8.70
2018-02-12T07:41:25.933Z,9.00
2018-02-12T07:43:53.442Z,8.10
2018-02-12T07:46:21.806Z,7.13
2018-02-12T07:48:49.329Z,7.57
2018-02-12T07:51:16.780Z,7.53
2018-02-12T07:53:44.247Z,6.57
2018-02-12T07:56:11.783Z,7.37
2018-02-12T07:58:40.129Z,7.17
2018-02-12T08:01:07.592Z,6.27
2018-02-12T08:03:36.165Z,6.93
2018-02-12T08:06:03.657Z,8.00
2018-02-12T08:08:31.908Z,7.10
2018-02-12T08:10:59.371Z,8.50
2018-02-12T08:13:26.825Z,7.93
2018-02-12T08:15:54.962Z,7.57
2018-02-12T08:18:22.438Z,7.27
2018-02-12T08:20:50.718Z,7.50
2018-02-12T08:23:18.208Z,5.80
2018-02-12T08:25:46.446Z,6.40
2018-02-12T08:28:13.944Z,6.90
2018-02-12T08:30:42.189Z,9.33
2018-02-12T08:33:09.645Z,5.90
2018-02-12T08:35:37.112Z,7.87
2018-02-12T08:38:04.558Z,5.87
2018-02-12T08:40:32.013Z,5.63
2018-02-12T08:42:59.468Z,7.60
2018-02-12T08:45:28.030Z,6.00
2018-02-12T08:47:55.590Z,5.67
2018-02-12T08:50:23.058Z,6.07
2018-02-12T08:52:50.592Z,6.77
2018-02-12T08:55:18.071Z,6.53
2018-02-12T08:57:45.548Z,8.10
2018-02-12T09:00:13.051Z,5.93
2018-02-12T09:02:41.184Z,7.23
2018-02-12T09:05:14.607Z,6.17
2018-02-12T09:07:42.057Z,6.53
2018-02-12T09:10:09.565Z,7.10
2018-02-12T09:12:37.785Z,5.83
2018-02-12T09:15:06.390Z,7.13
2018-02-12T09:17:33.870Z,5.50
2018-02-12T09:20:01.650Z,4.93
2018-02-12T09:22:29.968Z,5.40
2018-02-12T09:24:59.410Z,4.63
2018-02-12T09:27:26.885Z,4.97
2018-02-12T09:29:54.410Z,5.30
2018-02-12T09:32:22.767Z,5.47
2018-02-12T09:34:50.398Z,5.80
2018-02-12T09:37:19.165Z,5.27
2018-02-12T09:39:46.807Z,4.00
2018-02-12T09:42:14.720Z,4.83
2018-02-12T09:44:42.320Z,5.40
2018-02-12T09:47:09.811Z,5.20
2018-02-12T09:49:37.872Z,4.47
2018-02-12T09:52:06.391Z,4.50
2018-02-12T09:54:33.867Z,4.40
2018-02-12T09:57:02.459Z,4.47
2018-02-12T09:59:30.822Z,5.30
2018-02-12T10:02:01.879Z,4.73
2018-02-12T10:04:31.381Z,5.13
2018-02-12T10:07:01.146Z,3.70
2018-02-12T10:09:28.811Z,4.20
2018-02-12T10:11:57.104Z,4.77
2018-02-12T10:14:25.397Z,4.33
2018-02-12T10:16:53.625Z,4.33
2018-02-12T10:19:21.092Z,5.27
2018-02-12T10:21:49.402Z,4.50
2018-02-12T10:24:17.645Z,7.10
2018-02-12T10:26:45.111Z,4.60
2018-02-12T10:29:12.567Z,4.77
2018-02-12T10:31:40.182Z,5.57
2018-02-12T10:34:08.436Z,5.50
2018-02-12T10:36:35.925Z,5.30
2018-02-12T10:39:03.412Z,5.30
2018-02-12T10:41:30.905Z,4.40
2018-02-12T10:43:58.380Z,3.97
2018-02-12T10:46:25.870Z,5.43
2018-02-12T10:48:53.336Z,5.60
2018-02-12T10:51:20.851Z,4.20
2018-02-12T10:53:48.338Z,5.20
2018-02-12T10:56:15.993Z,4.63
2018-02-12T10:58:43.484Z,6.53
2018-02-12T11:01:11.744Z,5.83
2018-02-12T11:03:39.221Z,5.10
2018-02-12T11:06:07.448Z,5.47
2018-02-12T11:08:35.816Z,5.07
2018-02-12T11:11:04.091Z,5.33
2018-02-12T11:13:31.576Z,5.03
2018-02-12T11:15:59.036Z,5.87
2018-02-12T11:18:26.496Z,5.83
2018-02-12T11:20:54.465Z,5.10
2018-02-12T11:23:22.016Z,6.63
2018-02-12T11:25:49.480Z,6.40
2018-02-12T11:28:16.945Z,6.30
2018-02-12T11:30:44.442Z,6.03
2018-02-12T11:33:11.945Z,4.90
2018-02-12T11:35:39.468Z,5.10
2018-02-12T11:38:06.945Z,5.17
2018-02-12T11:40:34.420Z,5.57
2018-02-12T11:43:01.879Z,5.73
2018-02-12T11:45:29.344Z,5.13
2018-02-12T11:47:56.824Z,6.07
2018-02-12T11:50:24.288Z,6.40
2018-02-12T11:52:51.764Z,7.63
2018-02-12T11:55:19.292Z,5.70
2018-02-12T11:57:46.829Z,5.40
2018-02-12T12:00:14.300Z,5.77
2018-02-12T12:02:41.761Z,4.80
2018-02-12T12:05:10.030Z,4.67
2018-02-12T12:07:38.238Z,5.50
2018-02-12T12:10:05.713Z,5.03
2018-02-12T12:12:33.235Z,4.83
2018-02-12T12:15:00.768Z,4.70
2018-02-12T12:17:28.274Z,4.13
2018-02-12T12:19:55.959Z,4.90
2018-02-12T12:22:23.416Z,4.10
2018-02-12T12:24:50.948Z,4.43
2018-02-12T12:27:18.428Z,4.23
2018-02-12T12:29:45.884Z,3.40
2018-02-12T12:32:13.358Z,3.27
2018-02-12T12:34:40.829Z,3.87
2018-02-12T12:37:08.319Z,3.80
2018-02-12T12:39:36.574Z,4.30
2018-02-12T12:42:04.059Z,5.03
2018-02-12T12:44:31.547Z,4.30
2018-02-12T12:46:59.008Z,5.23
2018-02-12T12:49:26.498Z,5.07
2018-02-12T12:51:53.974Z,3.67
2018-02-12T12:54:21.457Z,3.87
2018-02-12T12:56:48.957Z,4.40
2018-02-12T12:59:16.431Z,4.00
2018-02-12T13:01:45.381Z,4.17
2018-02-12T13:04:12.849Z,3.63
2018-02-12T13:06:40.313Z,4.53
2018-02-12T13:09:09.341Z,3.80
2018-02-12T13:11:37.588Z,4.20
2018-02-12T13:14:05.056Z,3.37
2018-02-12T13:16:32.562Z,3.97
2018-02-12T13:19:00.018Z,5.10
2018-02-12T13:21:27.561Z,3.77
2018-02-12T13:23:55.029Z,4.43
2018-02-12T13:26:22.521Z,4.60
2018-02-12T13:28:50.057Z,6.13
2018-02-12T13:31:17.524Z,4.60
2018-02-12T13:33:44.972Z,3.53
2018-02-12T13:36:12.454Z,3.80
2018-02-12T13:38:39.920Z,4.03
2018-02-12T13:41:07.406Z,3.20
2018-02-12T13:43:34.886Z,4.00
2018-02-12T13:46:02.350Z,3.73
2018-02-12T13:48:29.820Z,3.73
2018-02-12T13:50:57.317Z,3.00
2018-02-12T13:53:25.572Z,3.07
2018-02-12T13:55:53.032Z,3.50
2018-02-12T13:58:20.512Z,3.40
2018-02-12T14:00:48.789Z,3.20
2018-02-12T14:03:17.116Z,3.17
2018-02-12T14:05:44.600Z,4.47
2018-02-12T14:08:12.094Z,3.67
2018-02-12T14:10:40.341Z,3.80
2018-02-12T14:13:07.825Z,4.10
2018-02-12T14:15:35.293Z,3.43
2018-02-12T14:18:02.779Z,4.10
2018-02-12T14:20:30.251Z,4.10
2018-02-12T14:22:57.716Z,3.97
2018-02-12T14:25:25.300Z,3.60
2018-02-12T14:27:53.560Z,4.00
2018-02-12T14:30:21.125Z,4.20
2018-02-12T14:32:48.594Z,3.63
2018-02-12T14:35:16.853Z,4.87
2018-02-12T14:37:45.095Z,4.53
2018-02-12T14:40:12.556Z,4.67
2018-02-12T14:42:40.036Z,4.70
2018-02-12T14:45:08.280Z,5.80
2018-02-12T14:47:36.084Z,5.00
2018-02-12T14:50:03.590Z,6.33
2018-02-12T14:52:31.063Z,6.80
2018-02-12T14:54:58.524Z,6.80
2018-02-12T14:57:26.026Z,7.33
2018-02-12T14:59:53.545Z,6.10
2018-02-12T15:02:21.035Z,8.77
2018-02-12T15:04:49.524Z,8.10
2018-02-12T15:07:17.831Z,9.97
2018-02-12T15:09:45.337Z,8.17
2018-02-12T15:12:12.802Z,7.50
2018-02-12T15:14:41.029Z,7.20
2018-02-12T15:17:08.505Z,7.57
2018-02-12T15:19:36.010Z,6.70
2018-02-12T15:22:03.500Z,8.90
2018-02-12T15:24:30.980Z,6.87
2018-02-12T15:26:58.481Z,6.37
2018-02-12T15:29:26.738Z,6.03
2018-02-12T15:31:55.019Z,6.50
2018-02-12T15:34:23.316Z,6.60
2018-02-12T15:36:50.831Z,6.40
2018-02-12T15:39:18.323Z,6.50
2018-02-12T15:41:46.556Z,6.00
2018-02-12T15:44:14.113Z,5.43
2018-02-12T15:46:41.622Z,5.90
2018-02-12T15:49:09.226Z,4.77
2018-02-12T15:51:36.711Z,5.20
2018-02-12T15:54:04.215Z,4.80
2018-02-12T15:56:31.683Z,5.50
2018-02-12T15:58:59.224Z,4.70
2018-02-12T16:01:26.712Z,4.20
2018-02-12T16:03:54.224Z,4.80
2018-02-12T16:06:22.093Z,5.23
2018-02-12T16:08:49.556Z,5.00
2018-02-12T16:11:17.084Z,4.60
2018-02-12T16:13:44.623Z,4.10
2018-02-12T16:16:12.118Z,4.60
2018-02-12T16:18:39.577Z,5.13
2018-02-12T16:21:07.907Z,5.37
2018-02-12T16:23:35.426Z,3.87
2018-02-12T16:26:02.901Z,5.80
2018-02-12T16:28:30.377Z,4.87
2018-02-12T16:30:57.840Z,8.63
2018-02-12T16:33:25.410Z,5.13
2018-02-12T16:35:52.874Z,5.70
2018-02-12T16:38:20.342Z,6.27
2018-02-12T16:40:48.556Z,5.47
2018-02-12T16:43:16.018Z,6.93
2018-02-12T16:45:43.505Z,5.50
2018-02-12T16:48:10.989Z,5.23
2018-02-12T16:50:39.256Z,6.57
2018-02-12T16:53:08.416Z,5.10
2018-02-12T16:55:35.984Z,7.37
2018-02-12T16:58:03.504Z,5.70
2018-02-12T17:00:31.104Z,6.40
2018-02-12T17:02:58.580Z,7.20
2018-02-12T17:05:26.099Z,7.40
2018-02-12T17:07:53.590Z,8.03
2018-02-12T17:10:21.157Z,7.40
2018-02-12T17:12:49.380Z,8.03
2018-02-12T17:15:16.842Z,7.27
2018-02-12T17:17:44.426Z,6.57
2018-02-12T17:20:11.908Z,7.00
2018-02-12T17:22:40.911Z,8.20
2018-02-12T17:25:08.396Z,9.00
2018-02-12T17:27:35.871Z,8.60
2018-02-12T17:30:03.347Z,7.73
2018-02-12T17:32:30.854Z,7.93
2018-02-12T17:34:58.339Z,7.90
2018-02-12T17:37:25.808Z,7.93
2018-02-12T17:39:53.291Z,9.37
2018-02-12T17:42:20.922Z,9.27
2018-02-12T17:44:48.398Z,7.70
2018-02-12T17:47:15.857Z,8.87
2018-02-12T17:49:43.349Z,8.13
2018-02-12T17:52:11.564Z,8.33
2018-02-12T17:54:45.158Z,9.40
2018-02-12T17:57:13.502Z,8.30
2018-02-12T17:59:41.041Z,10.23
2018-02-12T18:02:10.623Z,8.10
2018-02-12T18:04:38.109Z,10.53
2018-02-12T18:07:06.356Z,9.30
2018-02-12T18:09:33.905Z,10.43
2018-02-12T18:12:04.426Z,9.83
2018-02-12T18:14:32.475Z,10.13
2018-02-12T18:17:00.041Z,9.73
2018-02-12T18:19:27.568Z,9.60
2018-02-12T18:21:55.040Z,7.90
2018-02-12T18:24:22.527Z,9.10
2018-02-12T18:26:49.990Z,10.23
2018-02-12T18:29:17.457Z,9.80
2018-02-12T18:31:46.325Z,10.53
2018-02-12T18:34:13.795Z,8.90
2018-02-12T18:36:41.295Z,8.70
2018-02-12T18:39:09.534Z,8.93
2018-02-12T18:41:37.041Z,7.43
2018-02-12T18:44:04.591Z,9.10
2018-02-12T18:46:32.156Z,8.57
2018-02-12T18:48:59.639Z,8.87
2018-02-12T18:51:27.138Z,10.37
2018-02-12T18:53:54.595Z,9.70
2018-02-12T18:56:22.062Z,9.20
2018-02-12T18:58:49.546Z,8.50
2018-02-12T19:01:17.087Z,8.40
2018-02-12T19:03:45.328Z,10.37
2018-02-12T19:06:12.818Z,9.80
2018-02-12T19:08:41.555Z,8.90
2018-02-12T19:11:09.032Z,11.20
2018-02-12T19:13:36.517Z,7.80
2018-02-12T19:16:04.754Z,7.80
2018-02-12T19:18:32.209Z,8.50
2018-02-12T19:21:00.421Z,7.07
2018-02-12T19:23:27.924Z,6.77
2018-02-12T19:25:56.212Z,19.00
2018-02-12T19:28:23.721Z,10.70
2018-02-12T19:30:54.986Z,9.50
2018-02-12T19:33:22.460Z,7.87
2018-02-12T19:35:49.947Z,7.13
2018-02-12T19:38:17.432Z,7.10
2018-02-12T19:40:45.723Z,6.67
2018-02-12T19:43:13.536Z,6.40
2018-02-12T19:45:41.888Z,7.03
2018-02-12T19:48:09.361Z,7.83
2018-02-12T19:50:36.878Z,6.50
2018-02-12T19:53:06.185Z,7.97
2018-02-12T19:55:33.686Z,6.67
2018-02-12T19:58:01.160Z,8.20
2018-02-12T20:00:28.618Z,6.40
2018-02-12T20:02:56.101Z,6.67
2018-02-12T20:05:24.326Z,6.80
2018-02-12T20:07:51.798Z,7.03
2018-02-12T20:10:19.305Z,7.07
2018-02-12T20:12:46.789Z,7.77
2018-02-12T20:15:16.333Z,7.70
2018-02-12T20:17:44.674Z,7.73
2018-02-12T20:20:13.838Z,7.33
2018-02-12T20:22:41.332Z,11.97
2018-02-12T20:25:09.807Z,9.00
2018-02-12T20:27:37.334Z,6.30
2018-02-12T20:30:04.807Z,7.40
2018-02-12T20:32:33.052Z,7.57
2018-02-12T20:35:01.354Z,6.30
2018-02-12T20:37:29.741Z,6.07
2018-02-12T20:39:58.001Z,5.90
2018-02-12T20:42:29.306Z,6.60
2018-02-12T20:44:56.861Z,6.17
2018-02-12T20:47:24.371Z,8.40
2018-02-12T20:49:51.843Z,6.97
2018-02-12T20:52:19.485Z,8.80
2018-02-12T20:54:46.968Z,7.57
2018-02-12T20:57:16.481Z,7.00
2018-02-12T20:59:44.850Z,9.30
2018-02-12T21:02:12.328Z,9.37
2018-02-12T21:04:39.824Z,8.13
2018-02-12T21:07:09.295Z,9.40
2018-02-12T21:09:36.903Z,8.67
2018-02-12T21:12:05.243Z,6.80
2018-02-12T21:14:32.770Z,7.10
2018-02-12T21:17:00.386Z,18.30
2018-02-12T21:19:29.854Z,7.00
2018-02-12T21:21:57.327Z,8.53
2018-02-12T21:24:25.575Z,7.53
2018-02-12T21:26:53.077Z,7.67
2018-02-12T21:29:20.596Z,7.30
2018-02-12T21:31:49.042Z,16.10
2018-02-12T21:34:16.546Z,15.37
2018-02-12T21:36:44.058Z,7.67
2018-02-12T21:39:11.564Z,7.97
2018-02-12T21:41:39.040Z,10.00
2018-02-12T21:44:06.513Z,6.13
2018-02-12T21:46:34.028Z,4.70
2018-02-12T21:49:01.516Z,7.60
2018-02-12T21:51:29.029Z,6.47
2018-02-12T21:53:56.513Z,6.17
2018-02-12T21:56:24.766Z,7.40
2018-02-12T21:58:52.674Z,20.00
2018-02-12T22:01:20.968Z,9.17
2018-02-12T22:03:48.568Z,8.60
2018-02-12T22:06:16.844Z,5.67
2018-02-12T22:08:44.350Z,5.63
2018-02-12T22:11:11.816Z,6.43
2018-02-12T22:13:39.357Z,7.17
2018-02-12T22:16:06.859Z,5.60
2018-02-12T22:18:34.476Z,6.70
2018-02-12T22:21:02.011Z,5.07
2018-02-12T22:23:29.690Z,4.80
2018-02-12T22:25:57.225Z,4.80
2018-02-12T22:28:25.620Z,5.37
2018-02-12T22:30:53.931Z,6.00
2018-02-12T22:33:21.437Z,7.00
2018-02-12T22:35:48.946Z,6.10
2018-02-12T22:38:16.458Z,5.50
2018-02-12T22:40:44.697Z,5.80
2018-02-12T22:43:12.881Z,6.40
2018-02-12T22:45:41.086Z,5.30
2018-02-12T22:48:10.173Z,6.70
2018-02-12T22:50:37.685Z,5.57
2018-02-12T22:53:05.194Z,6.50
2018-02-12T22:55:33.449Z,5.57
2018-02-12T22:58:00.934Z,6.17
2018-02-12T23:00:29.183Z,5.77
2018-02-12T23:02:56.663Z,5.27
2018-02-12T23:05:24.900Z,5.40
2018-02-12T23:07:52.378Z,5.33
2018-02-12T23:10:19.839Z,4.93
2018-02-12T23:12:47.406Z,4.97
2018-02-12T23:15:21.398Z,4.77
2018-02-12T23:17:48.877Z,4.60
2018-02-12T23:20:17.129Z,4.57
2018-02-12T23:22:44.617Z,4.10
2018-02-12T23:25:12.850Z,4.93
2018-02-12T23:27:41.566Z,4.50
2018-02-12T23:30:09.831Z,5.63
2018-02-12T23:32:37.291Z,4.40
2018-02-12T23:35:05.561Z,5.27
2018-02-12T23:37:33.077Z,4.27
2018-02-12T23:40:01.291Z,5.00
2018-02-12T23:42:28.758Z,5.50
2018-02-12T23:44:56.268Z,5.60
2018-02-12T23:47:24.444Z,5.20
2018-02-12T23:49:54.073Z,4.90
2018-02-12T23:52:21.551Z,5.30
2018-02-12T23:54:49.067Z,5.40
2018-02-12T23:57:16.558Z,5.13
2018-02-12T23:59:44.030Z,4.40
